createdAt,value
2024-03-12T00:00:41.039Z,96101.41
2024-03-12T00:02:42.941Z,96101.75
2024-03-12T00:04:45.864Z,96127.47
2024-03-12T00:06:47.581Z,96129.94
2024-03-12T00:08:49.179Z,96129.78
2024-03-12T00:10:50.782Z,96123.84
2024-03-12T00:12:52.922Z,96119.72
2024-03-12T00:14:54.575Z,96124.34
2024-03-12T00:16:56.119Z,96125.47
2024-03-12T00:18:57.738Z,96127.16
2024-03-12T00:21:00.706Z,96132.59
2024-03-12T00:23:02.989Z,96124.47
2024-03-12T00:25:05.367Z,96121.84
2024-03-12T00:27:06.952Z,96130.44
2024-03-12T00:29:08.473Z,96124.97
2024-03-12T00:31:10.098Z,96129.75
2024-03-12T00:33:11.747Z,96127.13
2024-03-12T00:35:14.020Z,96130.09
2024-03-12T00:37:17.018Z,96137.34
2024-03-12T00:39:18.562Z,96136.69
2024-03-12T00:41:20.082Z,96133.72
2024-03-12T00:43:21.632Z,96135.53
2024-03-12T00:45:23.196Z,96128.09
2024-03-12T00:47:24.798Z,96139.81
2024-03-12T00:49:26.382Z,96138.34
2024-03-12T00:51:27.995Z,96138.00
2024-03-12T00:53:31.047Z,96138.00
2024-03-12T00:55:32.739Z,96127.78
2024-03-12T00:57:34.394Z,96135.53
2024-03-12T00:59:35.972Z,96133.22
2024-03-12T01:01:37.614Z,96135.34
2024-03-12T01:03:39.207Z,96139.31
2024-03-12T01:05:41.118Z,96146.22
2024-03-12T01:07:42.760Z,96132.34
2024-03-12T01:09:45.877Z,96129.06
2024-03-12T01:11:47.733Z,96145.03
2024-03-12T01:13:49.298Z,96109.03
2024-03-12T01:15:50.999Z,96148.50
2024-03-12T01:17:53.428Z,96143.72
2024-03-12T01:19:55.047Z,96111.03
2024-03-12T01:21:56.662Z,96135.47
2024-03-12T01:23:58.259Z,96142.75
2024-03-12T01:26:01.240Z,96149.34
2024-03-12T01:28:03.191Z,96143.91
2024-03-12T01:30:06.737Z,96132.69
2024-03-12T01:32:08.323Z,96144.41
2024-03-12T01:34:09.979Z,96147.69
2024-03-12T01:36:11.563Z,96133.00
2024-03-12T01:38:13.192Z,96149.97
2024-03-12T01:40:16.567Z,96145.84
2024-03-12T01:42:19.627Z,96153.44
2024-03-12T01:44:21.205Z,96138.44
2024-03-12T01:46:22.750Z,96156.41
2024-03-12T01:48:24.398Z,96142.91
2024-03-12T01:50:28.340Z,96155.13
2024-03-12T01:52:29.958Z,96144.88
2024-03-12T01:54:31.513Z,96152.81
2024-03-12T01:56:33.375Z,96165.66
2024-03-12T01:58:36.262Z,96164.69
2024-03-12T02:00:37.861Z,96168.97
2024-03-12T02:02:39.447Z,96164.34
2024-03-12T02:04:41.015Z,96162.03
2024-03-12T02:06:42.634Z,96164.00
2024-03-12T02:08:44.413Z,96164.00
2024-03-12T02:10:45.984Z,96151.97
2024-03-12T02:12:48.253Z,96169.44
2024-03-12T02:14:51.278Z,96167.94
2024-03-12T02:16:52.922Z,96158.38
2024-03-12T02:18:54.544Z,96155.19
2024-03-12T02:20:56.124Z,96168.94
2024-03-12T02:22:57.686Z,96167.94
2024-03-12T02:25:00.739Z,96173.84
2024-03-12T02:27:02.453Z,96177.75
2024-03-12T02:29:04.147Z,96172.22
2024-03-12T02:31:06.419Z,96176.88
2024-03-12T02:33:08.079Z,96183.81
2024-03-12T02:35:10.386Z,96183.13
2024-03-12T02:37:12.031Z,96168.28
2024-03-12T02:39:13.792Z,96175.13
2024-03-12T02:41:16.717Z,96185.69
2024-03-12T02:43:18.239Z,96186.88
2024-03-12T02:45:20.169Z,96187.19
2024-03-12T02:47:21.841Z,96187.53
2024-03-12T02:49:23.428Z,96180.72
2024-03-12T02:51:25.175Z,96190.53
2024-03-12T02:53:26.812Z,96177.81
2024-03-12T02:55:28.656Z,96186.00
2024-03-12T02:57:31.564Z,96196.94
2024-03-12T02:59:33.125Z,96195.81
2024-03-12T03:01:34.867Z,96193.31
2024-03-12T03:03:36.539Z,96204.22
2024-03-12T03:05:38.199Z,96191.88
2024-03-12T03:07:40.160Z,96193.66
2024-03-12T03:09:41.793Z,96184.78
2024-03-12T03:11:43.481Z,96189.06
2024-03-12T03:13:46.344Z,96191.69
2024-03-12T03:15:47.974Z,96196.34
2024-03-12T03:17:51.782Z,96190.06
2024-03-12T03:19:53.355Z,96198.47
2024-03-12T03:21:54.924Z,96204.25
2024-03-12T03:23:56.473Z,96196.94
2024-03-12T03:25:57.999Z,96198.19
2024-03-12T03:27:59.583Z,96198.00
2024-03-12T03:30:02.597Z,96196.03
2024-03-12T03:32:04.425Z,96187.47
2024-03-12T03:34:06.279Z,96191.44
2024-03-12T03:36:07.939Z,96193.59
2024-03-12T03:38:09.520Z,96199.19
2024-03-12T03:40:12.459Z,96185.97
2024-03-12T03:42:14.438Z,96199.00
2024-03-12T03:44:15.987Z,96194.56
2024-03-12T03:46:18.970Z,96212.56
2024-03-12T03:48:20.558Z,96211.28
2024-03-12T03:50:22.194Z,96199.91
2024-03-12T03:52:23.761Z,96186.53
2024-03-12T03:54:25.394Z,96209.03
2024-03-12T03:56:26.985Z,96216.28
2024-03-12T03:58:28.538Z,96216.94
2024-03-12T04:00:31.964Z,96214.97
2024-03-12T04:02:34.853Z,96213.31
2024-03-12T04:04:36.384Z,96218.44
2024-03-12T04:06:38.120Z,96228.34
2024-03-12T04:08:39.681Z,96222.88
2024-03-12T04:10:41.279Z,96230.00
2024-03-12T04:12:44.214Z,96224.22
2024-03-12T04:14:45.821Z,96228.84
2024-03-12T04:16:47.377Z,96232.97
2024-03-12T04:18:50.339Z,96238.41
2024-03-12T04:20:52.732Z,96230.81
2024-03-12T04:22:54.234Z,96244.19
2024-03-12T04:24:55.797Z,96242.38
2024-03-12T04:26:57.340Z,96248.47
2024-03-12T04:28:58.931Z,96241.03
2024-03-12T04:31:00.701Z,96243.34
2024-03-12T04:33:02.330Z,96230.16
2024-03-12T04:35:06.368Z,96239.06
2024-03-12T04:37:07.864Z,96260.53
2024-03-12T04:39:09.662Z,96253.25
2024-03-12T04:41:11.219Z,96236.59
2024-03-12T04:43:12.840Z,96247.31
2024-03-12T04:45:14.496Z,96248.97
2024-03-12T04:47:16.023Z,96256.91
2024-03-12T04:49:17.624Z,96255.56
2024-03-12T04:51:20.574Z,96254.25
2024-03-12T04:53:23.542Z,96263.34
2024-03-12T04:55:25.214Z,96266.47
2024-03-12T04:57:26.821Z,96248.81
2024-03-12T04:59:28.378Z,96277.69
2024-03-12T05:01:30.078Z,96253.59
2024-03-12T05:03:31.703Z,96279.19
2024-03-12T05:05:33.318Z,96280.84
2024-03-12T05:07:36.256Z,96282.00
2024-03-12T05:09:37.859Z,96292.88
2024-03-12T05:11:39.484Z,96289.75
2024-03-12T05:13:41.094Z,96286.63
2024-03-12T05:15:42.631Z,96269.78
2024-03-12T05:17:44.395Z,96287.28
2024-03-12T05:19:46.050Z,96291.91
2024-03-12T05:21:47.676Z,96269.59
2024-03-12T05:23:50.615Z,96305.78
2024-03-12T05:25:52.191Z,96307.75
2024-03-12T05:27:53.742Z,96310.56
2024-03-12T05:29:55.347Z,96285.44
2024-03-12T05:31:56.877Z,96312.38
2024-03-12T05:33:58.877Z,96313.69
2024-03-12T05:36:00.519Z,96318.81
2024-03-12T05:38:02.068Z,96320.97
2024-03-12T05:40:05.872Z,96325.25
2024-03-12T05:42:07.525Z,96314.38
2024-03-12T05:44:09.147Z,96324.44
2024-03-12T05:46:10.785Z,96325.59
2024-03-12T05:48:12.493Z,96330.88
2024-03-12T05:50:14.146Z,96322.78
2024-03-12T05:52:15.843Z,96338.66
2024-03-12T05:54:17.394Z,96330.88
2024-03-12T05:56:20.287Z,96342.78
2024-03-12T05:58:21.851Z,96325.44
2024-03-12T06:00:23.549Z,96329.56
2024-03-12T06:02:25.086Z,96328.56
2024-03-12T06:04:26.633Z,96343.09
2024-03-12T06:06:28.315Z,96340.94
2024-03-12T06:08:29.871Z,96346.41
2024-03-12T06:10:31.408Z,96351.03
2024-03-12T06:12:34.451Z,96341.78
2024-03-12T06:14:36.024Z,96356.31
2024-03-12T06:16:37.589Z,96361.13
2024-03-12T06:18:39.225Z,96353.69
2024-03-12T06:20:40.856Z,96354.66
2024-03-12T06:22:42.714Z,96356.66
2024-03-12T06:24:44.503Z,96363.59
2024-03-12T06:26:46.568Z,96365.56
2024-03-12T06:28:49.770Z,96356.34
2024-03-12T06:30:51.369Z,96370.53
2024-03-12T06:32:52.914Z,96368.41
2024-03-12T06:34:54.475Z,96372.06
2024-03-12T06:36:56.097Z,96371.56
2024-03-12T06:38:57.664Z,96369.09
2024-03-12T06:40:59.257Z,96376.38
2024-03-12T06:43:00.958Z,96371.56
2024-03-12T06:45:04.525Z,96363.16
2024-03-12T06:47:06.632Z,96377.34
2024-03-12T06:49:08.255Z,96376.84
2024-03-12T06:51:10.057Z,96384.78
2024-03-12T06:53:12.156Z,96387.28
2024-03-12T06:55:17.030Z,96390.06
2024-03-12T06:57:19.066Z,96358.50
2024-03-12T06:59:20.607Z,96383.47
2024-03-12T07:01:23.639Z,96401.31
2024-03-12T07:03:25.398Z,96393.38
2024-03-12T07:05:26.981Z,96404.47
2024-03-12T07:07:28.528Z,96408.25
2024-03-12T07:09:30.570Z,96406.59
2024-03-12T07:11:32.205Z,96399.50
2024-03-12T07:13:33.840Z,96402.31
2024-03-12T07:15:37.276Z,96407.91
2024-03-12T07:17:40.241Z,96397.03
2024-03-12T07:19:41.879Z,96410.25
2024-03-12T07:21:43.468Z,96403.78
2024-03-12T07:23:45.160Z,96402.97
2024-03-12T07:25:46.717Z,96420.50
2024-03-12T07:27:48.256Z,96420.66
2024-03-12T07:29:49.826Z,96431.06
2024-03-12T07:31:51.398Z,96421.47
2024-03-12T07:33:54.329Z,96421.66
2024-03-12T07:35:55.899Z,96427.75
2024-03-12T07:37:57.499Z,96416.69
2024-03-12T07:39:59.120Z,96420.81
2024-03-12T07:42:01.509Z,96422.47
2024-03-12T07:44:03.168Z,96412.56
2024-03-12T07:46:04.774Z,96412.22
2024-03-12T07:48:07.356Z,96430.41
2024-03-12T07:50:12.878Z,96429.91
2024-03-12T07:52:14.656Z,96432.06
2024-03-12T07:54:16.580Z,96440.00
2024-03-12T07:56:18.237Z,96431.72
2024-03-12T07:58:19.885Z,96435.38
2024-03-12T08:00:21.717Z,96447.28
2024-03-12T08:02:23.271Z,96435.22
2024-03-12T08:04:25.222Z,96431.72
2024-03-12T08:06:28.165Z,96440.81
2024-03-12T08:08:29.740Z,96450.09
2024-03-12T08:10:31.297Z,96435.19
2024-03-12T08:12:32.892Z,96442.97
2024-03-12T08:14:34.827Z,96448.25
2024-03-12T08:16:38.106Z,96449.91
2024-03-12T08:18:39.695Z,96424.44
2024-03-12T08:20:41.267Z,96458.50
2024-03-12T08:22:44.187Z,96449.59
2024-03-12T08:24:45.996Z,96460.50
2024-03-12T08:26:47.611Z,96455.19
2024-03-12T08:28:49.170Z,96431.56
2024-03-12T08:30:50.903Z,96446.59
2024-03-12T08:32:52.545Z,96447.09
2024-03-12T08:34:54.163Z,96458.19
2024-03-12T08:36:56.188Z,96453.22
2024-03-12T08:38:59.166Z,96461.50
2024-03-12T08:41:00.768Z,96465.97
2024-03-12T08:43:05.059Z,96466.44
2024-03-12T08:45:09.479Z,96463.81
2024-03-12T08:47:11.098Z,96464.97
2024-03-12T08:49:12.941Z,96463.31
2024-03-12T08:51:14.593Z,96478.03
2024-03-12T08:53:16.739Z,96466.94
2024-03-12T08:55:20.108Z,96461.00
2024-03-12T08:57:21.724Z,96479.34
2024-03-12T08:59:23.293Z,96477.38
2024-03-12T09:01:25.211Z,96484.97
2024-03-12T09:03:26.844Z,96481.50
2024-03-12T09:05:28.572Z,96488.31
2024-03-12T09:07:30.131Z,96478.72
2024-03-12T09:09:31.762Z,96486.63
2024-03-12T09:11:34.813Z,96489.09
2024-03-12T09:13:36.464Z,96489.13
2024-03-12T09:15:38.026Z,96490.59
2024-03-12T09:17:39.836Z,96490.97
2024-03-12T09:19:43.054Z,96490.59
2024-03-12T09:21:45.077Z,96488.44
2024-03-12T09:23:56.330Z,96496.25
2024-03-12T09:26:03.034Z,96494.91
2024-03-12T09:28:06.606Z,96487.28
2024-03-12T09:30:09.286Z,96468.09
2024-03-12T09:32:10.808Z,96486.97
2024-03-12T09:34:12.493Z,96502.84
2024-03-12T09:36:14.098Z,96499.69
2024-03-12T09:38:15.781Z,96504.81
2024-03-12T09:40:17.620Z,96497.38
2024-03-12T09:42:21.098Z,96495.72
2024-03-12T09:44:24.334Z,96499.88
2024-03-12T09:46:26.051Z,96508.47
2024-03-12T09:48:28.323Z,96503.69
2024-03-12T09:50:30.085Z,96509.47
2024-03-12T09:52:31.971Z,96503.81
2024-03-12T09:54:34.086Z,96515.59
2024-03-12T09:56:35.919Z,96522.38
2024-03-12T09:58:37.554Z,96520.22
2024-03-12T10:00:40.532Z,96519.06
2024-03-12T10:02:42.345Z,96529.00
2024-03-12T10:04:43.905Z,96526.00
2024-03-12T10:06:45.565Z,96521.72
2024-03-12T10:08:48.557Z,96527.00
2024-03-12T10:10:52.457Z,96529.31
2024-03-12T10:12:54.062Z,96524.69
2024-03-12T10:14:55.613Z,96530.81
2024-03-12T10:17:10.598Z,96514.78
2024-03-12T10:19:13.965Z,96528.16
2024-03-12T10:21:22.963Z,96533.25
2024-03-12T10:23:25.608Z,96535.09
2024-03-12T10:25:27.155Z,96530.97
2024-03-12T10:27:28.821Z,96531.28
2024-03-12T10:29:34.399Z,96533.94
2024-03-12T10:31:36.416Z,96530.97
2024-03-12T10:33:41.376Z,96533.31
2024-03-12T10:35:42.970Z,96536.28
2024-03-12T10:37:44.553Z,96541.56
2024-03-12T10:39:46.180Z,96538.09
2024-03-12T10:41:47.945Z,96541.56
2024-03-12T10:43:50.821Z,96544.88
2024-03-12T10:45:53.377Z,96545.03
2024-03-12T10:47:55.320Z,96544.53
2024-03-12T10:49:58.895Z,96540.91
2024-03-12T10:52:01.032Z,96553.13
2024-03-12T10:54:02.817Z,96536.59
2024-03-12T10:56:09.766Z,96542.72
2024-03-12T10:58:14.227Z,96552.31
2024-03-12T11:00:16.566Z,96554.47
2024-03-12T11:02:18.269Z,96553.16
2024-03-12T11:04:20.099Z,96547.53
2024-03-12T11:06:23.222Z,96554.13
2024-03-12T11:08:29.125Z,96551.00
2024-03-12T11:10:31.625Z,96541.88
2024-03-12T11:12:33.535Z,96551.81
2024-03-12T11:14:35.253Z,96553.47
2024-03-12T11:16:37.040Z,96546.69
2024-03-12T11:18:39.815Z,96553.28
2024-03-12T11:20:41.618Z,96548.50
2024-03-12T11:22:44.832Z,96557.28
2024-03-12T11:24:50.008Z,96551.31
2024-03-12T11:26:51.857Z,96564.88
2024-03-12T11:28:53.454Z,96552.13
2024-03-12T11:31:03.064Z,96572.97
2024-03-12T11:33:04.803Z,96571.19
2024-03-12T11:35:07.631Z,96576.94
2024-03-12T11:37:15.516Z,96575.66
2024-03-12T11:39:25.828Z,96572.34
2024-03-12T11:42:01.001Z,96567.72
2024-03-12T11:44:02.760Z,96578.31
2024-03-12T11:46:04.715Z,96549.47
2024-03-12T11:48:06.978Z,96568.81
2024-03-12T11:50:33.931Z,96574.34
2024-03-12T11:52:35.705Z,96563.72
2024-03-12T11:54:42.388Z,96582.91
2024-03-12T11:56:54.164Z,96570.97
2024-03-12T11:59:00.154Z,96576.09
2024-03-12T12:01:09.299Z,96576.28
2024-03-12T12:03:12.016Z,96562.34
2024-03-12T12:05:13.608Z,96586.19
2024-03-12T12:07:15.577Z,96585.41
2024-03-12T12:09:17.275Z,96593.53
2024-03-12T12:11:20.751Z,96592.16
2024-03-12T12:13:22.378Z,96593.78
2024-03-12T12:15:23.990Z,96593.47
2024-03-12T12:17:25.918Z,96576.69
2024-03-12T12:19:32.322Z,96596.78
2024-03-12T12:21:39.932Z,96593.75
2024-03-12T12:23:43.007Z,96590.13
2024-03-12T12:25:47.481Z,96588.81
2024-03-12T12:27:50.591Z,96585.81
2024-03-12T12:29:52.393Z,96587.81
2024-03-12T12:31:54.494Z,96583.53
2024-03-12T12:33:59.841Z,96582.88
2024-03-12T12:36:05.243Z,96585.53
2024-03-12T12:38:06.953Z,96569.66
2024-03-12T12:40:09.874Z,96573.84
2024-03-12T12:42:11.528Z,96572.50
2024-03-12T12:44:14.545Z,96569.88
2024-03-12T12:46:16.295Z,96571.03
2024-03-12T12:48:18.000Z,96571.03
2024-03-12T12:50:27.208Z,96579.31
2024-03-12T12:52:28.943Z,96579.13
2024-03-12T12:54:30.665Z,96575.66
2024-03-12T12:56:40.742Z,96571.53
2024-03-12T12:58:42.299Z,96578.78
2024-03-12T13:00:45.818Z,96574.13
2024-03-12T13:02:47.623Z,96559.44
2024-03-12T13:04:55.551Z,96580.94
2024-03-12T13:06:57.640Z,96574.47
2024-03-12T13:08:59.642Z,96574.31
2024-03-12T13:11:02.802Z,96571.31
2024-03-12T13:13:04.488Z,96563.53
2024-03-12T13:15:06.726Z,96564.53
2024-03-12T13:17:09.654Z,96554.25
2024-03-12T13:19:11.225Z,96556.16
2024-03-12T13:21:13.152Z,96560.56
2024-03-12T13:23:14.823Z,96557.22
2024-03-12T13:25:16.421Z,96558.88
2024-03-12T13:27:17.966Z,96562.63
2024-03-12T13:29:19.549Z,96564.59
2024-03-12T13:31:21.501Z,96567.22
2024-03-12T13:33:24.704Z,96557.22
2024-03-12T13:35:26.610Z,96557.06
2024-03-12T13:37:28.230Z,96553.53
2024-03-12T13:39:29.819Z,96549.56
2024-03-12T13:41:31.382Z,96560.47
2024-03-12T13:43:32.967Z,96550.97
2024-03-12T13:45:34.689Z,96548.03
2024-03-12T13:47:36.338Z,96562.53
2024-03-12T13:49:39.271Z,96553.81
2024-03-12T13:51:41.008Z,96555.50
2024-03-12T13:53:42.620Z,96547.13
2024-03-12T13:55:44.230Z,96563.66
2024-03-12T13:57:45.835Z,96560.53
2024-03-12T13:59:47.546Z,96563.22
2024-03-12T14:01:49.350Z,96568.97
2024-03-12T14:03:51.082Z,96562.75
2024-03-12T14:05:54.171Z,96567.97
2024-03-12T14:07:55.748Z,96551.31
2024-03-12T14:09:57.346Z,96559.88
2024-03-12T14:11:58.995Z,96583.97
2024-03-12T14:14:00.626Z,96572.31
2024-03-12T14:16:02.278Z,96586.53
2024-03-12T14:18:04.530Z,96580.91
2024-03-12T14:20:07.425Z,96586.56
2024-03-12T14:22:10.368Z,96594.84
2024-03-12T14:24:11.956Z,96585.56
2024-03-12T14:26:13.552Z,96585.22
2024-03-12T14:28:15.311Z,96584.91
2024-03-12T14:30:17.107Z,96581.94
2024-03-12T14:32:18.730Z,96577.44
2024-03-12T14:34:20.394Z,96593.19
2024-03-12T14:36:21.974Z,96587.53
2024-03-12T14:38:24.901Z,96567.84
2024-03-12T14:40:26.529Z,96582.56
2024-03-12T14:42:28.604Z,96586.88
2024-03-12T14:44:30.207Z,96583.75
2024-03-12T14:46:31.927Z,96587.84
2024-03-12T14:48:33.607Z,96572.25
2024-03-12T14:50:35.216Z,96560.94
2024-03-12T14:52:36.906Z,96579.09
2024-03-12T14:54:39.940Z,96578.25
2024-03-12T14:56:41.552Z,96580.78
2024-03-12T14:58:43.166Z,96577.63
2024-03-12T15:00:44.726Z,96583.47
2024-03-12T15:02:46.308Z,96587.06
2024-03-12T15:04:48.263Z,96591.53
2024-03-12T15:06:49.981Z,96598.00
2024-03-12T15:08:51.660Z,96577.94
2024-03-12T15:10:54.607Z,96587.72
2024-03-12T15:12:56.283Z,96586.91
2024-03-12T15:14:57.884Z,96597.47
2024-03-12T15:16:59.492Z,96599.78
2024-03-12T15:19:01.078Z,96603.25
2024-03-12T15:21:02.939Z,96603.09
2024-03-12T15:23:04.684Z,96605.09
2024-03-12T15:25:07.529Z,96600.47
2024-03-12T15:27:10.538Z,96611.06
2024-03-12T15:29:12.191Z,96593.50
2024-03-12T15:31:13.809Z,96607.09
2024-03-12T15:33:15.534Z,96606.44
2024-03-12T15:35:17.331Z,96608.59
2024-03-12T15:37:19.027Z,96607.09
2024-03-12T15:39:21.011Z,96604.44
2024-03-12T15:41:22.533Z,96602.44
2024-03-12T15:43:25.655Z,96602.78
2024-03-12T15:45:27.475Z,96600.31
2024-03-12T15:47:29.041Z,96596.50
2024-03-12T15:49:30.653Z,96603.28
2024-03-12T15:51:32.210Z,96596.81
2024-03-12T15:53:33.846Z,96600.81
2024-03-12T15:55:35.515Z,96596.00
2024-03-12T15:57:39.883Z,96600.63
2024-03-12T15:59:43.360Z,96596.34
2024-03-12T16:01:46.571Z,96601.63
2024-03-12T16:03:48.280Z,96602.78
2024-03-12T16:05:49.957Z,96599.63
2024-03-12T16:07:51.542Z,96601.97
2024-03-12T16:09:53.126Z,96600.16
2024-03-12T16:11:54.745Z,96601.63
2024-03-12T16:13:56.338Z,96605.28
2024-03-12T16:15:59.263Z,96597.16
2024-03-12T16:18:00.976Z,96603.78
2024-03-12T16:20:02.678Z,96596.31
2024-03-12T16:22:04.473Z,96606.09
2024-03-12T16:24:06.656Z,96607.41
2024-03-12T16:26:08.255Z,96604.94
2024-03-12T16:28:09.886Z,96610.72
2024-03-12T16:30:15.099Z,96610.91
2024-03-12T16:32:18.992Z,96606.75
2024-03-12T16:34:20.600Z,96608.41
2024-03-12T16:36:22.238Z,96608.09
2024-03-12T16:38:23.802Z,96614.72
2024-03-12T16:40:25.430Z,96622.00
2024-03-12T16:42:26.989Z,96604.94
2024-03-12T16:44:28.537Z,96613.06
2024-03-12T16:46:30.103Z,96624.31
2024-03-12T16:48:36.586Z,96621.84
2024-03-12T16:50:40.542Z,96618.03
2024-03-12T16:52:42.239Z,96618.53
2024-03-12T16:54:44.297Z,96606.94
2024-03-12T16:56:46.450Z,96612.06
2024-03-12T16:58:48.576Z,96605.94
2024-03-12T17:00:50.748Z,96608.59
2024-03-12T17:02:52.709Z,96609.75
2024-03-12T17:04:56.292Z,96596.84
2024-03-12T17:07:01.143Z,96609.75
2024-03-12T17:09:03.263Z,96618.69
2024-03-12T17:11:05.479Z,96612.06
2024-03-12T17:13:07.821Z,96624.66
2024-03-12T17:15:10.725Z,96618.69
2024-03-12T17:17:13.952Z,96624.97
2024-03-12T17:19:16.236Z,96614.72
2024-03-12T17:21:19.746Z,96618.69
2024-03-12T17:23:21.922Z,96616.88
2024-03-12T17:25:23.933Z,96630.59
2024-03-12T17:27:28.469Z,96607.09
2024-03-12T17:29:30.540Z,96631.09
2024-03-12T17:31:32.599Z,96632.59
2024-03-12T17:33:34.844Z,96628.59
2024-03-12T17:35:37.109Z,96641.19
2024-03-12T17:37:42.277Z,96639.53
2024-03-12T17:39:46.753Z,96637.88
2024-03-12T17:41:48.828Z,96632.41
2024-03-12T17:43:50.978Z,96633.09
2024-03-12T17:45:53.153Z,96644.50
2024-03-12T17:47:55.350Z,96635.41
2024-03-12T17:49:58.567Z,96643.66
2024-03-12T17:52:00.746Z,96634.72
2024-03-12T17:54:04.406Z,96637.88
2024-03-12T17:56:07.029Z,96638.34
2024-03-12T17:58:12.188Z,96638.53
2024-03-12T18:00:14.946Z,96632.56
2024-03-12T18:02:16.814Z,96634.56
2024-03-12T18:04:19.033Z,96648.47
2024-03-12T18:06:23.883Z,96641.03
2024-03-12T18:08:26.632Z,96641.50
2024-03-12T18:10:31.621Z,96641.50
2024-03-12T18:12:33.747Z,96636.88
2024-03-12T18:14:35.316Z,96648.47
2024-03-12T18:16:38.307Z,96642.53
2024-03-12T18:18:40.423Z,96628.63
2024-03-12T18:20:42.100Z,96648.81
2024-03-12T18:22:43.884Z,96647.50
2024-03-12T18:24:45.522Z,96625.97
2024-03-12T18:26:48.448Z,96640.53
2024-03-12T18:28:50.018Z,96639.22
2024-03-12T18:30:51.637Z,96638.88
2024-03-12T18:32:53.463Z,96611.06
2024-03-12T18:34:55.052Z,96611.56
2024-03-12T18:36:56.642Z,96616.69
2024-03-12T18:38:58.293Z,96631.25
2024-03-12T18:40:59.820Z,96632.75
2024-03-12T18:43:02.931Z,96635.22
2024-03-12T18:45:05.700Z,96633.25
2024-03-12T18:47:07.936Z,96639.19
2024-03-12T18:49:10.105Z,96626.94
2024-03-12T18:51:12.269Z,96634.41
2024-03-12T18:53:15.157Z,96630.41
2024-03-12T18:55:19.528Z,96639.69
2024-03-12T18:57:22.544Z,96643.19
2024-03-12T18:59:26.130Z,96644.50
2024-03-12T19:01:43.781Z,96619.00
2024-03-12T19:03:47.391Z,96637.53
2024-03-12T19:05:51.429Z,96642.50
2024-03-12T19:07:53.195Z,96644.81
2024-03-12T19:09:55.399Z,96651.44
2024-03-12T19:11:57.471Z,96642.66
2024-03-12T19:23:05.867Z,96647.13
2024-03-12T19:25:08.322Z,96652.75
2024-03-12T19:27:17.185Z,96633.88
2024-03-12T19:29:22.432Z,96644.66
2024-03-12T19:31:29.091Z,96654.75
2024-03-12T19:33:34.924Z,96651.75
2024-03-12T19:35:36.990Z,96642.13
2024-03-12T19:37:39.176Z,96644.75
2024-03-12T19:39:43.739Z,96655.88
2024-03-12T19:41:46.177Z,96650.75
2024-03-12T19:43:50.133Z,96641.50
2024-03-12T19:45:52.514Z,96633.34
2024-03-12T19:48:03.723Z,96631.50
2024-03-12T19:50:17.764Z,96652.75
2024-03-12T19:52:19.463Z,96651.09
2024-03-12T19:54:21.136Z,96628.94
2024-03-12T19:56:24.036Z,96642.34
2024-03-12T19:58:25.627Z,96645.47
2024-03-12T20:00:37.740Z,96602.41
2024-03-12T20:02:39.585Z,96644.31
2024-03-12T20:04:44.035Z,96654.72
2024-03-12T20:06:45.653Z,96635.81
2024-03-12T20:08:47.237Z,96662.47
2024-03-12T20:10:48.947Z,96625.22
2024-03-12T20:12:53.078Z,96659.53
2024-03-12T20:14:55.510Z,96655.34
2024-03-12T20:16:57.038Z,96650.38
2024-03-12T20:18:58.634Z,96641.44
2024-03-12T20:21:00.299Z,96657.97
2024-03-12T20:23:01.937Z,96644.72
2024-03-12T20:25:03.850Z,96652.81
2024-03-12T20:27:05.742Z,96624.66
2024-03-12T20:29:08.753Z,96659.44
2024-03-12T20:31:10.614Z,96654.69
2024-03-12T20:33:12.305Z,96634.13
2024-03-12T20:35:14.022Z,96627.00
2024-03-12T20:37:16.010Z,96648.38
2024-03-12T20:39:17.976Z,96658.28
2024-03-12T20:41:19.577Z,96649.00
2024-03-12T20:43:21.373Z,96651.00
2024-03-12T20:45:24.417Z,96633.78
2024-03-12T20:47:26.033Z,96638.94
2024-03-12T20:49:27.634Z,96620.25
2024-03-12T20:51:29.195Z,96630.34
2024-03-12T20:53:30.715Z,96644.41
2024-03-12T20:55:32.397Z,96630.81
2024-03-12T20:57:34.321Z,96640.75
2024-03-12T20:59:35.903Z,96639.25
2024-03-12T21:01:38.927Z,96635.97
2024-03-12T21:03:40.600Z,96633.50
2024-03-12T21:05:42.503Z,96623.88
2024-03-12T21:07:44.102Z,96633.16
2024-03-12T21:09:45.771Z,96626.69
2024-03-12T21:11:47.448Z,96604.00
2024-03-12T21:13:49.062Z,96553.69
2024-03-12T21:15:50.736Z,96597.88
2024-03-12T21:17:53.890Z,96606.19
2024-03-12T21:19:55.515Z,96564.63
2024-03-12T21:21:57.144Z,96621.91
2024-03-12T21:23:58.829Z,96606.34
2024-03-12T21:26:00.429Z,96612.63
2024-03-12T21:28:02.159Z,96581.50
2024-03-12T21:30:04.467Z,96607.19
2024-03-12T21:32:06.620Z,96609.97
2024-03-12T21:34:09.989Z,96558.16
2024-03-12T21:36:11.617Z,96613.94
2024-03-12T21:38:13.224Z,96609.47
2024-03-12T21:40:14.974Z,96572.41
2024-03-12T21:42:16.770Z,96611.13
2024-03-12T21:44:18.451Z,96593.94
2024-03-12T21:46:20.014Z,96605.38
2024-03-12T21:48:21.705Z,96596.09
2024-03-12T21:50:24.736Z,96592.97
2024-03-12T21:52:26.514Z,96585.34
2024-03-12T21:54:28.142Z,96594.09
2024-03-12T21:56:29.767Z,96585.16
2024-03-12T21:58:34.558Z,96599.41
2024-03-12T22:00:36.552Z,96602.69
2024-03-12T22:02:39.170Z,96575.72
2024-03-12T22:04:47.309Z,96600.03
2024-03-12T22:06:51.384Z,96549.03
2024-03-12T22:09:09.976Z,96593.44
2024-03-12T22:11:18.601Z,96591.09
2024-03-12T22:13:28.251Z,96543.25
2024-03-12T22:15:33.458Z,96558.31
2024-03-12T22:17:40.521Z,96587.94
2024-03-12T22:19:53.812Z,96555.34
2024-03-12T22:21:57.218Z,96582.50
2024-03-12T22:23:59.384Z,96537.13
2024-03-12T22:26:06.178Z,96580.66
2024-03-12T22:28:08.130Z,96581.00
2024-03-12T22:30:10.816Z,96580.50
2024-03-12T22:32:12.442Z,96580.19
2024-03-12T22:34:35.570Z,96581.97
2024-03-12T22:36:37.171Z,96564.28
2024-03-12T22:38:41.104Z,96552.88
2024-03-12T22:40:43.111Z,96570.41
2024-03-12T22:42:44.996Z,96556.31
2024-03-12T22:44:47.061Z,96546.41
2024-03-12T22:46:49.288Z,96559.31
2024-03-12T22:48:51.441Z,96557.69
2024-03-12T22:50:53.612Z,96499.78
2024-03-12T22:52:55.634Z,96563.31
2024-03-12T22:54:58.949Z,96547.38
2024-03-12T22:57:01.013Z,96523.94
2024-03-12T22:59:03.107Z,96540.50
2024-03-12T23:01:05.419Z,96509.16
2024-03-12T23:03:07.971Z,96518.97
2024-03-12T23:05:11.013Z,96509.38
2024-03-12T23:07:13.270Z,96544.31
2024-03-12T23:09:15.270Z,96525.78
2024-03-12T23:11:18.319Z,96534.72
2024-03-12T23:13:20.060Z,96522.28
2024-03-12T23:15:21.728Z,96532.06
2024-03-12T23:17:23.322Z,96523.63
2024-03-12T23:19:25.061Z,96496.31
2024-03-12T23:21:27.113Z,96522.59
2024-03-12T23:23:28.750Z,96531.53
2024-03-12T23:25:30.490Z,96522.41
2024-03-12T23:27:33.492Z,96527.91
2024-03-12T23:29:35.028Z,96524.25
2024-03-12T23:31:36.678Z,96529.88
2024-03-12T23:33:38.228Z,96508.06
2024-03-12T23:35:39.798Z,96504.25
2024-03-12T23:37:41.645Z,96512.34
2024-03-12T23:39:43.265Z,96498.13
2024-03-12T23:41:44.830Z,96509.53
2024-03-12T23:43:47.806Z,96509.03
2024-03-12T23:45:49.397Z,96514.00
2024-03-12T23:47:52.070Z,96505.09
2024-03-12T23:49:53.953Z,96498.16
2024-03-12T23:51:55.611Z,96493.84
2024-03-12T23:53:57.219Z,96491.97
2024-03-12T23:55:58.788Z,96497.72
2024-03-12T23:58:00.412Z,96487.50
